createdAt,value
2022-11-18T00:01:31.932Z,99716.48
2022-11-18T00:04:00.343Z,99710.51
2022-11-18T00:06:30.273Z,99712.55
2022-11-18T00:09:00.727Z,99716.14
2022-11-18T00:11:48.430Z,99710.99
2022-11-18T00:14:23.573Z,99712.70
2022-11-18T00:17:03.478Z,99707.38
2022-11-18T00:19:39.960Z,99705.13
2022-11-18T00:22:12.673Z,99699.46
2022-11-18T00:24:41.046Z,99697.04
2022-11-18T00:27:09.396Z,99692.23
2022-11-18T00:29:38.055Z,99686.89
2022-11-18T00:32:06.403Z,99688.93
2022-11-18T00:34:34.885Z,99686.48
2022-11-18T00:37:03.417Z,99684.75
2022-11-18T00:39:31.972Z,99681.84
2022-11-18T00:42:21.159Z,99679.23
2022-11-18T00:44:49.533Z,99680.58
2022-11-18T00:47:17.863Z,99677.45
2022-11-18T00:49:46.168Z,99682.92
2022-11-18T00:52:14.702Z,99678.96
2022-11-18T00:54:42.973Z,99680.16
2022-11-18T00:57:11.476Z,99674.16
2022-11-18T00:59:39.721Z,99677.09
2022-11-18T01:02:08.120Z,99680.34
2022-11-18T01:04:36.477Z,99679.82
2022-11-18T01:07:04.862Z,99674.67
2022-11-18T01:09:33.465Z,99667.64
2022-11-18T01:12:20.943Z,99664.91
2022-11-18T01:14:49.353Z,99663.17
2022-11-18T01:17:17.620Z,99664.89
2022-11-18T01:19:46.225Z,99660.92
2022-11-18T01:22:14.496Z,99656.80
2022-11-18T01:24:42.878Z,99656.27
2022-11-18T01:27:11.121Z,99654.87
2022-11-18T01:29:39.359Z,99657.95
2022-11-18T01:32:24.893Z,99660.00
2022-11-18T01:34:53.847Z,99655.88
2022-11-18T01:37:22.669Z,99661.04
2022-11-18T01:39:50.986Z,99653.45
2022-11-18T01:42:19.777Z,99652.73
2022-11-18T01:45:10.140Z,99652.55
2022-11-18T01:47:44.837Z,99652.00
2022-11-18T01:50:14.878Z,99651.11
2022-11-18T01:52:47.422Z,99650.41
2022-11-18T01:55:27.599Z,99646.48
2022-11-18T01:58:07.851Z,99644.08
2022-11-18T02:00:37.105Z,99644.21
2022-11-18T02:03:06.408Z,99642.43
2022-11-18T02:05:36.323Z,99646.19
2022-11-18T02:08:07.851Z,99643.25
2022-11-18T02:10:36.186Z,99639.48
2022-11-18T02:13:04.920Z,99639.64
2022-11-18T02:15:42.379Z,99638.90
2022-11-18T02:18:24.179Z,99635.97
2022-11-18T02:21:01.117Z,99636.48
2022-11-18T02:24:00.496Z,99634.73
2022-11-18T02:26:39.165Z,99638.14
2022-11-18T02:29:17.253Z,99639.84
2022-11-18T02:31:53.882Z,99642.57
2022-11-18T02:34:49.723Z,99648.92
2022-11-18T02:37:27.201Z,99649.58
2022-11-18T02:40:14.744Z,99652.50
2022-11-18T02:42:50.347Z,99652.86
2022-11-18T02:45:21.386Z,99649.09
2022-11-18T02:47:51.758Z,99652.52
2022-11-18T02:50:25.475Z,99644.27
2022-11-18T02:52:58.437Z,99647.68
2022-11-18T02:55:30.909Z,99654.02
2022-11-18T02:58:01.507Z,99652.31
2022-11-18T03:00:30.724Z,99653.15
2022-11-18T03:02:59.090Z,99654.33
2022-11-18T03:05:43.275Z,99654.66
2022-11-18T03:08:17.852Z,99654.63
2022-11-18T03:11:11.615Z,99659.92
2022-11-18T03:14:14.223Z,99657.16
2022-11-18T03:17:02.605Z,99661.12
2022-11-18T03:19:52.989Z,99663.85
2022-11-18T03:22:33.485Z,99665.95
2022-11-18T03:25:14.472Z,99668.38
2022-11-18T03:28:05.476Z,99664.77
2022-11-18T03:30:37.440Z,99665.95
2022-11-18T03:33:11.810Z,99668.00
2022-11-18T03:35:43.561Z,99668.70
2022-11-18T03:38:21.648Z,99670.77
2022-11-18T03:40:55.239Z,99667.36
2022-11-18T03:43:27.608Z,99668.73
2022-11-18T03:45:59.121Z,99675.06
2022-11-18T03:48:32.231Z,99672.49
2022-11-18T03:51:14.764Z,99672.34
2022-11-18T03:53:52.193Z,99672.19
2022-11-18T03:56:24.839Z,99676.30
2022-11-18T03:59:13.197Z,99678.54
2022-11-18T04:01:52.823Z,99676.33
2022-11-18T04:04:24.060Z,99677.05
2022-11-18T04:07:04.608Z,99672.41
2022-11-18T04:09:41.851Z,99672.95
2022-11-18T04:12:18.277Z,99670.02
2022-11-18T04:14:55.681Z,99669.48
2022-11-18T04:17:27.742Z,99674.29
2022-11-18T04:19:56.433Z,99677.05
2022-11-18T04:22:24.691Z,99673.98
2022-11-18T04:24:52.941Z,99675.34
2022-11-18T04:27:21.394Z,99674.46
2022-11-18T04:29:49.661Z,99675.85
2022-11-18T04:32:17.925Z,99673.25
2022-11-18T04:34:46.652Z,99668.52
2022-11-18T04:37:15.096Z,99670.48
2022-11-18T04:39:43.342Z,99666.68
2022-11-18T04:42:11.684Z,99670.25
2022-11-18T04:44:39.980Z,99672.80
2022-11-18T04:47:08.331Z,99667.98
